createdAt,value
2019-01-20T00:05:00.023Z,99.90
2019-01-20T00:08:44.712Z,99.90
2019-01-20T00:12:29.357Z,99.90
2019-01-20T00:16:14.194Z,99.90
2019-01-20T00:19:58.845Z,99.90
2019-01-20T00:23:43.603Z,99.90
2019-01-20T00:27:28.238Z,99.90
2019-01-20T00:31:12.959Z,99.90
2019-01-20T00:34:57.618Z,99.90
2019-01-20T00:38:35.126Z,99.90
2019-01-20T00:42:19.872Z,99.90
2019-01-20T00:46:04.558Z,99.90
2019-01-20T00:49:49.283Z,99.90
2019-01-20T00:53:33.988Z,99.90
2019-01-20T00:57:18.754Z,99.90
2019-01-20T01:01:03.426Z,99.90
2019-01-20T01:04:48.108Z,99.90
2019-01-20T01:08:32.982Z,99.90
2019-01-20T01:16:14.005Z,99.90
2019-01-20T01:19:58.678Z,99.90
2019-01-20T01:23:24.509Z,99.90
2019-01-20T01:27:09.178Z,99.90
2019-01-20T01:30:53.916Z,99.90
2019-01-20T01:34:38.650Z,99.90
2019-01-20T01:38:15.724Z,99.90
2019-01-20T01:42:00.432Z,99.90
2019-01-20T01:45:45.095Z,99.90
2019-01-20T01:49:30.023Z,99.90
2019-01-20T01:53:14.695Z,99.90
2019-01-20T02:00:49.892Z,99.90
2019-01-20T02:08:24.945Z,99.90
2019-01-20T02:12:09.594Z,99.90
2019-01-20T02:15:54.299Z,99.90
2019-01-20T02:19:39.247Z,99.90
2019-01-20T02:23:23.949Z,99.90
2019-01-20T02:27:08.591Z,99.90
2019-01-20T02:30:53.231Z,99.90
2019-01-20T02:38:20.807Z,99.90
2019-01-20T02:42:05.494Z,99.90
2019-01-20T02:45:50.175Z,99.90
2019-01-20T02:49:34.885Z,99.90
2019-01-20T02:53:19.531Z,99.90
2019-01-20T02:57:04.279Z,99.90
2019-01-20T03:00:48.985Z,99.90
2019-01-20T03:04:33.693Z,99.90
2019-01-20T03:08:18.408Z,99.90
2019-01-20T03:12:03.830Z,99.90
2019-01-20T03:15:53.422Z,99.90
2019-01-20T03:19:38.094Z,99.90
2019-01-20T03:23:22.983Z,99.90
2019-01-20T03:27:07.641Z,99.90
2019-01-20T03:30:52.328Z,99.90
2019-01-20T03:34:37.017Z,99.90
2019-01-20T03:38:14.173Z,99.90
2019-01-20T03:42:01.993Z,99.90
2019-01-20T03:45:27.636Z,99.90
2019-01-20T03:49:12.271Z,99.90
2019-01-20T03:52:56.907Z,99.90
2019-01-20T03:56:41.895Z,99.90
2019-01-20T04:00:26.574Z,99.90
2019-01-20T04:04:03.868Z,99.90
2019-01-20T04:07:48.929Z,99.90
2019-01-20T04:11:33.587Z,99.90
2019-01-20T04:15:18.309Z,99.90
2019-01-20T04:19:02.986Z,99.90
2019-01-20T04:22:47.694Z,99.90
2019-01-20T04:26:32.351Z,99.90
2019-01-20T04:30:57.286Z,99.90
2019-01-20T04:34:41.975Z,99.90
2019-01-20T04:38:19.162Z,99.90
2019-01-20T04:42:03.868Z,99.90
2019-01-20T04:45:48.507Z,99.90
2019-01-20T04:49:33.188Z,99.90
2019-01-20T04:53:17.830Z,99.90
2019-01-20T04:57:02.487Z,99.90
2019-01-20T05:00:47.149Z,99.90
2019-01-20T05:04:24.401Z,99.90
2019-01-20T05:08:09.092Z,99.90
2019-01-20T05:11:53.812Z,99.90
2019-01-20T05:15:38.460Z,99.90
2019-01-20T05:19:23.095Z,99.90
2019-01-20T05:23:07.754Z,99.90
2019-01-20T05:26:52.379Z,99.90
2019-01-20T05:30:37.040Z,99.90
2019-01-20T05:34:21.728Z,99.90
2019-01-20T05:37:59.162Z,99.90
2019-01-20T05:41:43.834Z,99.90
2019-01-20T05:45:28.514Z,99.90
2019-01-20T05:49:13.182Z,99.90
2019-01-20T05:52:57.848Z,99.90
2019-01-20T05:56:23.454Z,99.90
2019-01-20T06:00:49.492Z,99.90
2019-01-20T06:04:27.135Z,99.90
2019-01-20T06:08:11.814Z,99.90
2019-01-20T06:11:56.855Z,99.90
2019-01-20T06:15:41.657Z,99.90
2019-01-20T06:19:26.356Z,99.90
2019-01-20T06:23:11.286Z,99.90
2019-01-20T06:26:37.438Z,99.90
2019-01-20T06:30:24.612Z,99.90
2019-01-20T06:34:09.256Z,99.90
2019-01-20T06:37:47.004Z,99.90
2019-01-20T06:41:31.666Z,99.90
2019-01-20T06:45:16.370Z,99.90
2019-01-20T06:49:01.241Z,99.90
2019-01-20T06:52:45.930Z,99.90
2019-01-20T06:56:30.839Z,99.90
2019-01-20T07:00:17.745Z,99.90
2019-01-20T07:03:55.145Z,99.90
2019-01-20T07:08:00.146Z,99.90
2019-01-20T07:11:44.769Z,99.90
2019-01-20T07:15:41.726Z,99.90
2019-01-20T07:19:16.077Z,99.90
2019-01-20T07:23:00.736Z,99.90
2019-01-20T07:26:45.402Z,99.90
2019-01-20T07:30:30.094Z,99.90
2019-01-20T07:34:14.860Z,99.90
2019-01-20T07:37:59.527Z,99.90
2019-01-20T07:41:36.661Z,99.90
2019-01-20T07:45:21.345Z,99.90
2019-01-20T07:49:06.014Z,99.90
2019-01-20T07:52:51.284Z,99.90
2019-01-20T07:56:35.956Z,99.90
2019-01-20T08:00:22.365Z,99.90
2019-01-20T08:04:07.202Z,99.90
2019-01-20T08:07:51.877Z,99.90
2019-01-20T08:11:36.784Z,99.90
2019-01-20T08:15:21.462Z,99.90
2019-01-20T08:19:06.469Z,99.90
2019-01-20T08:22:51.554Z,99.90
2019-01-20T08:26:36.344Z,99.90
2019-01-20T08:30:26.041Z,99.90
2019-01-20T08:34:10.696Z,99.90
2019-01-20T08:37:51.133Z,99.90
2019-01-20T08:42:20.122Z,99.90
2019-01-20T08:46:30.431Z,99.90
2019-01-20T08:49:56.379Z,99.90
2019-01-20T08:53:41.070Z,99.90
2019-01-20T08:57:25.752Z,99.90
2019-01-20T09:01:10.492Z,99.90
2019-01-20T09:04:55.571Z,99.90
2019-01-20T09:08:32.476Z,99.90
2019-01-20T09:12:17.539Z,99.90
2019-01-20T09:16:02.219Z,99.90
2019-01-20T09:19:46.841Z,99.90
2019-01-20T09:23:31.508Z,99.90
2019-01-20T09:26:57.160Z,99.90
2019-01-20T09:30:41.794Z,99.90
2019-01-20T09:34:26.804Z,99.90
2019-01-20T09:38:04.314Z,99.90
2019-01-20T09:41:48.987Z,99.90
2019-01-20T09:49:25.895Z,99.90
2019-01-20T09:53:10.504Z,99.90
2019-01-20T10:01:04.653Z,99.90
2019-01-20T10:04:49.580Z,99.90
2019-01-20T10:08:27.057Z,99.90
2019-01-20T10:12:11.751Z,99.90
2019-01-20T10:23:25.090Z,99.90
2019-01-20T10:31:13.846Z,99.90
2019-01-20T10:38:43.779Z,99.90
2019-01-20T10:42:28.508Z,99.40
2019-01-20T10:46:13.239Z,94.90
2019-01-20T10:49:58.216Z,96.80
2019-01-20T10:57:46.492Z,93.60
2019-01-20T11:01:49.961Z,96.40
2019-01-20T11:05:34.907Z,97.20
2019-01-20T11:09:19.649Z,94.80
2019-01-20T11:13:04.694Z,97.00
2019-01-20T11:16:49.345Z,93.60
2019-01-20T11:20:34.010Z,81.50
2019-01-20T11:24:19.003Z,81.30
2019-01-20T11:28:04.047Z,78.10
2019-01-20T11:31:48.739Z,70.60
2019-01-20T11:35:33.388Z,61.20
2019-01-20T11:39:11.332Z,53.40
2019-01-20T11:42:55.984Z,50.30
2019-01-20T11:46:40.710Z,48.60
2019-01-20T11:50:25.650Z,51.70
2019-01-20T11:54:10.329Z,44.90
2019-01-20T11:57:55.054Z,45.70
2019-01-20T12:01:39.945Z,41.90
2019-01-20T12:05:07.296Z,45.20
2019-01-20T12:08:52.349Z,43.60
2019-01-20T12:16:10.273Z,40.20
2019-01-20T12:19:54.969Z,41.50
2019-01-20T12:23:39.605Z,40.70
2019-01-20T12:27:24.322Z,41.70
2019-01-20T12:31:09.047Z,41.20
2019-01-20T12:34:53.834Z,40.10
2019-01-20T12:38:30.683Z,40.20
2019-01-20T12:42:15.413Z,37.80
2019-01-20T12:46:00.082Z,38.30
2019-01-20T12:49:45.040Z,36.00
2019-01-20T12:53:30.176Z,34.80
2019-01-20T12:57:15.152Z,33.40
2019-01-20T13:00:59.855Z,32.70
2019-01-20T13:04:44.797Z,32.40
2019-01-20T13:08:29.503Z,30.50
2019-01-20T13:12:14.461Z,30.10
2019-01-20T13:15:59.154Z,29.50
2019-01-20T13:19:44.205Z,29.30
2019-01-20T13:23:29.508Z,29.50
2019-01-20T13:27:14.280Z,28.80
2019-01-20T13:30:59.003Z,28.80
2019-01-20T13:34:43.663Z,30.90
2019-01-20T13:38:29.360Z,32.50
2019-01-20T13:42:14.357Z,31.90
2019-01-20T13:45:59.065Z,34.80
2019-01-20T13:49:43.784Z,34.10
2019-01-20T13:53:28.585Z,33.80
2019-01-20T13:57:13.363Z,32.90
2019-01-20T14:00:58.022Z,31.90
2019-01-20T14:04:24.013Z,31.10
2019-01-20T14:08:09.166Z,29.90
2019-01-20T14:11:54.122Z,70.00
2019-01-20T14:15:38.744Z,37.10
2019-01-20T14:19:23.439Z,34.50
2019-01-20T14:23:08.172Z,33.30
2019-01-20T14:26:52.852Z,34.20
2019-01-20T14:30:37.526Z,38.00
2019-01-20T14:34:22.251Z,46.00
2019-01-20T14:38:07.994Z,42.30
2019-01-20T14:41:44.936Z,42.10
2019-01-20T14:49:33.111Z,47.50
2019-01-20T14:53:17.797Z,58.40
2019-01-20T14:57:02.413Z,67.30
2019-01-20T15:00:47.695Z,66.70
2019-01-20T15:04:32.343Z,64.10
2019-01-20T15:08:11.155Z,85.10
2019-01-20T15:11:56.053Z,91.00
2019-01-20T15:16:02.471Z,96.20
2019-01-20T15:19:47.167Z,98.70
2019-01-20T15:23:31.859Z,97.70
2019-01-20T15:27:16.903Z,99.10
2019-01-20T15:31:01.586Z,99.90
2019-01-20T15:34:46.260Z,99.90
2019-01-20T15:38:30.963Z,99.90
2019-01-20T15:45:46.579Z,99.90
2019-01-20T15:49:31.230Z,99.90
2019-01-20T15:53:16.160Z,99.90
2019-01-20T15:57:01.146Z,99.90
2019-01-20T16:00:46.133Z,99.90
2019-01-20T16:04:30.742Z,99.90
2019-01-20T16:08:17.666Z,99.90
2019-01-20T16:11:43.307Z,99.90
2019-01-20T16:15:47.025Z,99.90
2019-01-20T16:19:31.784Z,99.90
2019-01-20T16:23:16.760Z,99.90
2019-01-20T16:27:01.395Z,99.90
2019-01-20T16:30:46.071Z,99.90
2019-01-20T16:34:30.741Z,99.90
2019-01-20T16:38:09.060Z,99.90
2019-01-20T16:41:53.731Z,99.90
2019-01-20T16:45:57.461Z,99.90
2019-01-20T16:49:42.452Z,99.90
2019-01-20T16:53:27.097Z,99.90
2019-01-20T16:57:11.723Z,99.90
2019-01-20T17:00:56.416Z,99.90
2019-01-20T17:04:41.109Z,99.90
2019-01-20T17:08:25.794Z,99.90
2019-01-20T17:11:51.448Z,99.90
2019-01-20T17:15:30.736Z,99.90
2019-01-20T17:19:17.753Z,99.90
2019-01-20T17:23:01.800Z,99.90
2019-01-20T17:26:46.451Z,99.90
2019-01-20T17:30:32.238Z,99.90
2019-01-20T17:34:17.234Z,99.90
2019-01-20T17:37:54.281Z,99.90
2019-01-20T17:41:38.935Z,99.90
2019-01-20T17:45:26.079Z,99.90
2019-01-20T17:49:10.811Z,99.90
2019-01-20T17:52:55.527Z,99.90
2019-01-20T17:56:40.223Z,99.90
2019-01-20T18:04:27.227Z,99.90
2019-01-20T18:08:12.672Z,99.90
2019-01-20T18:11:38.602Z,99.90
2019-01-20T18:15:04.518Z,99.90
2019-01-20T18:18:49.363Z,99.90
2019-01-20T18:22:34.125Z,99.90
2019-01-20T18:26:19.046Z,99.90
2019-01-20T18:29:44.860Z,99.90
2019-01-20T18:33:29.599Z,99.90
2019-01-20T18:37:08.595Z,99.90
2019-01-20T18:40:53.435Z,99.90
2019-01-20T18:44:38.330Z,99.90
2019-01-20T18:48:22.974Z,99.90
2019-01-20T18:52:15.084Z,99.90
2019-01-20T18:55:59.730Z,99.90
2019-01-20T18:59:44.453Z,99.90
2019-01-20T19:03:29.105Z,99.90
2019-01-20T19:07:06.275Z,99.90
2019-01-20T19:10:50.915Z,99.90
2019-01-20T19:14:35.572Z,99.90
2019-01-20T19:18:01.136Z,99.90
2019-01-20T19:21:27.052Z,99.90
2019-01-20T19:24:52.919Z,99.90
2019-01-20T19:28:37.567Z,99.90
2019-01-20T19:32:22.174Z,99.90
2019-01-20T19:36:25.664Z,99.90
2019-01-20T19:40:10.862Z,99.90
2019-01-20T19:43:55.498Z,99.90
2019-01-20T19:47:40.210Z,99.90
2019-01-20T19:51:24.898Z,99.90
2019-01-20T19:55:12.435Z,99.90
2019-01-20T19:58:57.057Z,99.90
2019-01-20T20:02:41.685Z,99.90
2019-01-20T20:06:26.296Z,99.90
2019-01-20T20:10:03.572Z,99.90
2019-01-20T20:13:48.193Z,99.90
2019-01-20T20:17:32.836Z,99.90
2019-01-20T20:21:17.422Z,99.90
2019-01-20T20:25:02.063Z,99.90
2019-01-20T20:29:05.519Z,99.90
2019-01-20T20:32:50.178Z,99.90
2019-01-20T20:36:53.632Z,99.90
2019-01-20T20:40:38.246Z,99.90
2019-01-20T20:44:23.140Z,99.90
2019-01-20T20:47:48.758Z,99.90
2019-01-20T20:51:33.372Z,99.90
2019-01-20T20:55:18.007Z,99.90
2019-01-20T20:59:02.675Z,99.90
2019-01-20T21:02:47.289Z,99.90
2019-01-20T21:06:24.409Z,99.90
2019-01-20T21:10:14.022Z,99.90
2019-01-20T21:13:58.685Z,99.90
2019-01-20T21:21:21.538Z,99.90
2019-01-20T21:28:43.767Z,99.90
2019-01-20T21:32:28.422Z,99.90
2019-01-20T21:39:56.887Z,99.90
2019-01-20T21:44:00.372Z,99.90
2019-01-20T21:55:44.033Z,99.90
2019-01-20T21:59:28.654Z,99.90
2019-01-20T22:06:55.671Z,99.90
2019-01-20T22:10:40.352Z,99.90
2019-01-20T22:14:25.022Z,99.90
2019-01-20T22:22:00.460Z,99.90
2019-01-20T22:25:45.111Z,99.90
2019-01-20T22:29:48.609Z,99.90
2019-01-20T22:41:26.631Z,99.90
2019-01-20T22:45:32.382Z,99.90
2019-01-20T22:49:17.070Z,99.90
2019-01-20T22:53:20.570Z,99.90
2019-01-20T23:01:27.757Z,99.90
2019-01-20T23:08:55.027Z,99.90
2019-01-20T23:12:39.673Z,99.90
2019-01-20T23:20:27.955Z,99.90
2019-01-20T23:24:12.550Z,99.90
2019-01-20T23:27:57.212Z,99.90
2019-01-20T23:39:22.413Z,99.90
2019-01-20T23:43:25.989Z,99.90
2019-01-20T23:47:15.095Z,99.90
2019-01-20T23:50:56.987Z,99.90
